createdAt,value
2019-04-05T00:00:39.295Z,19.37
2019-04-05T00:03:08.849Z,20.10
2019-04-05T00:05:38.449Z,20.83
2019-04-05T00:08:08.474Z,21.00
2019-04-05T00:10:37.969Z,20.33
2019-04-05T00:13:08.501Z,20.33
2019-04-05T00:15:38.133Z,20.80
2019-04-05T00:18:07.785Z,20.63
2019-04-05T00:20:37.759Z,20.97
2019-04-05T00:23:07.343Z,21.80
2019-04-05T00:25:37.109Z,21.47
2019-04-05T00:28:06.660Z,21.87
2019-04-05T00:30:36.211Z,22.67
2019-04-05T00:33:05.765Z,22.07
2019-04-05T00:35:35.334Z,21.10
2019-04-05T00:38:05.153Z,22.87
2019-04-05T00:40:34.771Z,23.50
2019-04-05T00:43:04.453Z,22.20
2019-04-05T00:45:33.979Z,21.93
2019-04-05T00:48:03.680Z,22.33
2019-04-05T00:50:33.588Z,21.53
2019-04-05T00:53:03.148Z,23.13
2019-04-05T00:55:32.694Z,23.20
2019-04-05T00:58:02.269Z,23.80
2019-04-05T01:00:31.852Z,23.17
2019-04-05T01:03:01.412Z,21.77
2019-04-05T01:05:31.231Z,22.67
2019-04-05T01:08:01.251Z,23.43
2019-04-05T01:10:31.377Z,23.63
2019-04-05T01:13:00.890Z,23.27
2019-04-05T01:15:40.198Z,22.37
2019-04-05T01:18:01.802Z,23.13
2019-04-05T01:20:35.733Z,24.07
2019-04-05T01:23:05.741Z,23.70
2019-04-05T01:25:36.365Z,23.97
2019-04-05T01:28:05.977Z,22.53
2019-04-05T01:30:35.975Z,22.87
2019-04-05T01:33:05.712Z,24.10
2019-04-05T01:35:35.693Z,23.27
2019-04-05T01:38:05.381Z,22.43
2019-04-05T01:40:37.071Z,22.27
2019-04-05T01:43:06.900Z,22.73
2019-04-05T01:45:36.791Z,23.00
2019-04-05T01:48:06.274Z,21.90
2019-04-05T01:50:36.243Z,22.30
2019-04-05T01:53:05.837Z,21.17
2019-04-05T01:55:35.568Z,21.37
2019-04-05T01:58:05.411Z,21.27
2019-04-05T02:00:35.191Z,21.77
2019-04-05T02:03:05.401Z,20.10
2019-04-05T02:05:35.445Z,20.23
2019-04-05T02:08:05.435Z,19.80
2019-04-05T02:10:35.551Z,19.87
2019-04-05T02:13:05.627Z,20.13
2019-04-05T02:15:36.941Z,19.53
2019-04-05T02:18:06.783Z,20.57
2019-04-05T02:20:36.671Z,19.10
2019-04-05T02:23:06.362Z,20.37
2019-04-05T02:25:35.977Z,19.60
2019-04-05T02:28:05.511Z,19.23
2019-04-05T02:30:35.084Z,20.23
2019-04-05T02:33:04.736Z,20.67
2019-04-05T02:35:34.290Z,19.13
2019-04-05T02:38:03.834Z,18.47
2019-04-05T02:40:35.243Z,18.33
2019-04-05T02:43:05.593Z,18.20
2019-04-05T02:45:37.532Z,18.67
2019-04-05T02:48:10.332Z,18.73
2019-04-05T02:50:43.575Z,18.40
2019-04-05T02:53:15.042Z,18.87
2019-04-05T02:55:45.463Z,18.93
2019-04-05T02:58:15.592Z,18.37
2019-04-05T03:00:45.861Z,18.30
2019-04-05T03:03:16.748Z,17.67
2019-04-05T03:05:48.072Z,18.13
2019-04-05T03:08:18.654Z,17.80
2019-04-05T03:11:11.065Z,16.77
2019-04-05T03:13:54.422Z,16.87
2019-04-05T03:16:40.259Z,16.97
2019-04-05T03:19:04.299Z,16.57
2019-04-05T03:21:35.912Z,17.23
2019-04-05T03:24:07.812Z,16.67
2019-04-05T03:26:40.788Z,16.63
2019-04-05T03:29:11.345Z,18.53
2019-04-05T03:31:40.975Z,16.00
2019-04-05T03:34:11.069Z,16.23
2019-04-05T03:36:40.966Z,16.17
2019-04-05T03:39:11.162Z,17.80
2019-04-05T03:41:59.673Z,16.33
2019-04-05T03:44:29.103Z,15.30
2019-04-05T03:46:59.034Z,16.03
2019-04-05T03:49:29.564Z,17.03
2019-04-05T03:51:59.071Z,15.70
2019-04-05T03:54:29.260Z,15.80
2019-04-05T03:56:59.156Z,15.17
2019-04-05T03:59:28.733Z,15.57
2019-04-05T04:01:58.141Z,15.50
2019-04-05T04:04:27.853Z,16.07
2019-04-05T04:06:57.656Z,15.60
2019-04-05T04:09:28.351Z,16.97
2019-04-05T04:11:57.961Z,15.83
2019-04-05T04:14:28.102Z,17.47
2019-04-05T04:17:11.564Z,17.97
2019-04-05T04:19:29.943Z,17.97
2019-04-05T04:22:24.892Z,17.60
2019-04-05T04:24:54.392Z,19.57
2019-04-05T04:27:23.950Z,18.43
2019-04-05T04:29:54.237Z,19.37
2019-04-05T04:32:24.922Z,19.27
2019-04-05T04:34:54.859Z,21.30
2019-04-05T04:37:24.683Z,21.20
2019-04-05T04:39:54.773Z,20.50
2019-04-05T04:42:24.999Z,20.57
2019-04-05T04:44:54.821Z,21.13
2019-04-05T04:47:26.719Z,19.90
2019-04-05T04:49:57.849Z,21.43
2019-04-05T04:52:31.362Z,22.53
2019-04-05T04:55:00.964Z,21.30
2019-04-05T04:57:30.600Z,21.93
2019-04-05T05:00:00.137Z,21.67
2019-04-05T05:02:29.870Z,22.17
2019-04-05T05:04:59.901Z,20.97
2019-04-05T05:07:29.563Z,20.20
2019-04-05T05:09:59.468Z,20.60
2019-04-05T05:12:28.994Z,19.97
2019-04-05T05:14:58.728Z,20.10
2019-04-05T05:17:37.704Z,19.70
2019-04-05T05:19:59.562Z,18.93
2019-04-05T05:22:29.826Z,20.60
2019-04-05T05:25:00.780Z,18.00
2019-04-05T05:27:30.715Z,18.13
2019-04-05T05:30:00.249Z,17.60
2019-04-05T05:32:30.030Z,17.77
2019-04-05T05:35:02.153Z,16.43
2019-04-05T05:37:32.802Z,16.77
2019-04-05T05:40:02.002Z,15.80
2019-04-05T05:42:31.465Z,13.97
2019-04-05T05:45:01.532Z,15.33
2019-04-05T05:47:31.058Z,14.07
2019-04-05T05:50:00.479Z,14.40
2019-04-05T05:52:30.060Z,12.67
2019-04-05T05:54:59.509Z,13.57
2019-04-05T05:57:28.899Z,13.77
2019-04-05T05:59:58.483Z,12.97
2019-04-05T06:02:29.580Z,11.67
2019-04-05T06:04:58.990Z,12.63
2019-04-05T06:07:28.445Z,13.20
2019-04-05T06:09:57.842Z,12.53
2019-04-05T06:12:27.883Z,12.43
2019-04-05T06:14:57.554Z,12.60
2019-04-05T06:17:27.041Z,11.90
2019-04-05T06:19:56.693Z,12.13
2019-04-05T06:22:26.109Z,12.87
2019-04-05T06:24:55.859Z,12.07
2019-04-05T06:27:25.465Z,11.80
2019-04-05T06:29:54.923Z,11.43
2019-04-05T06:32:24.399Z,12.27
2019-04-05T06:34:54.095Z,12.30
2019-04-05T06:37:23.790Z,12.00
2019-04-05T06:39:53.684Z,11.33
2019-04-05T06:42:23.541Z,11.93
2019-04-05T06:44:53.290Z,11.33
2019-04-05T06:47:23.005Z,11.43
2019-04-05T06:49:52.691Z,11.60
2019-04-05T06:52:22.666Z,11.43
2019-04-05T06:54:52.531Z,12.80
2019-04-05T06:57:22.265Z,11.73
2019-04-05T06:59:51.797Z,11.47
2019-04-05T07:02:21.554Z,11.20
2019-04-05T07:04:50.919Z,11.83
2019-04-05T07:07:20.869Z,11.97
2019-04-05T07:09:50.685Z,11.30
2019-04-05T07:12:20.756Z,10.80
2019-04-05T07:14:50.612Z,11.70
2019-04-05T07:17:22.993Z,11.30
2019-04-05T07:19:53.055Z,11.63
2019-04-05T07:22:36.868Z,10.93
2019-04-05T07:24:54.035Z,10.87
2019-04-05T07:27:23.505Z,10.90
2019-04-05T07:29:53.083Z,11.40
2019-04-05T07:32:22.738Z,11.30
2019-04-05T07:34:52.428Z,11.37
2019-04-05T07:37:22.105Z,12.23
2019-04-05T07:39:51.541Z,10.77
2019-04-05T07:42:21.025Z,11.03
2019-04-05T07:44:50.586Z,10.70
2019-04-05T07:47:20.003Z,11.47
2019-04-05T07:49:49.383Z,10.00
2019-04-05T07:52:18.736Z,10.60
2019-04-05T07:54:48.183Z,11.00
2019-04-05T07:57:17.749Z,11.37
2019-04-05T07:59:47.224Z,11.53
2019-04-05T08:02:17.577Z,10.90
2019-04-05T08:04:46.969Z,11.43
2019-04-05T08:07:18.353Z,11.23
2019-04-05T08:09:48.681Z,11.17
2019-04-05T08:12:18.811Z,10.93
2019-04-05T08:14:49.022Z,10.63
2019-04-05T08:17:18.478Z,10.93
2019-04-05T08:19:48.223Z,11.67
2019-04-05T08:22:18.060Z,11.57
2019-04-05T08:24:47.467Z,11.10
2019-04-05T08:27:17.271Z,12.50
2019-04-05T08:29:46.692Z,13.20
2019-04-05T08:32:16.104Z,12.37
2019-04-05T08:34:45.504Z,11.80
2019-04-05T08:37:14.987Z,12.30
2019-04-05T08:39:44.371Z,12.10
2019-04-05T08:42:13.847Z,11.73
2019-04-05T08:44:43.297Z,11.57
2019-04-05T08:47:12.726Z,10.83
2019-04-05T08:49:42.129Z,11.87
2019-04-05T08:52:11.511Z,11.37
2019-04-05T08:54:40.885Z,11.83
2019-04-05T08:57:10.297Z,12.63
2019-04-05T08:59:39.790Z,11.80
2019-04-05T09:02:09.336Z,11.80
2019-04-05T09:04:38.764Z,12.33
2019-04-05T09:07:08.177Z,11.87
2019-04-05T09:09:37.641Z,11.03
2019-04-05T09:12:07.052Z,12.23
2019-04-05T09:14:36.760Z,11.47
2019-04-05T09:17:06.138Z,11.37
2019-04-05T09:19:35.871Z,11.07
2019-04-05T09:22:05.392Z,12.50
2019-04-05T09:24:35.239Z,12.30
2019-04-05T09:27:04.891Z,12.53
2019-04-05T09:29:34.281Z,13.17
2019-04-05T09:32:03.759Z,13.13
2019-04-05T09:34:33.204Z,13.13
2019-04-05T09:37:02.717Z,13.30
2019-04-05T09:39:32.087Z,14.33
2019-04-05T09:42:01.589Z,14.47
2019-04-05T09:44:30.999Z,13.80
2019-04-05T09:47:00.872Z,14.47
2019-04-05T09:49:36.601Z,14.03
2019-04-05T09:52:01.911Z,14.20
2019-04-05T09:54:31.326Z,13.73
2019-04-05T09:57:00.685Z,13.47
2019-04-05T09:59:30.099Z,12.17
2019-04-05T10:01:59.505Z,12.50
2019-04-05T10:04:31.237Z,12.20
2019-04-05T10:07:00.087Z,12.60
2019-04-05T10:09:29.423Z,13.07
2019-04-05T10:11:58.833Z,13.07
2019-04-05T10:14:28.578Z,12.73
2019-04-05T10:16:58.003Z,12.63
2019-04-05T10:19:27.463Z,12.73
2019-04-05T10:21:56.989Z,12.20
2019-04-05T10:24:26.374Z,12.57
2019-04-05T10:26:55.786Z,12.30
2019-04-05T10:29:25.475Z,12.63
2019-04-05T10:31:54.861Z,12.40
2019-04-05T10:34:24.295Z,12.90
2019-04-05T10:36:53.763Z,12.90
2019-04-05T10:39:23.148Z,13.37
2019-04-05T10:42:02.701Z,12.37
2019-04-05T10:44:24.352Z,12.30
2019-04-05T10:46:54.239Z,12.50
2019-04-05T10:49:24.090Z,11.83
2019-04-05T10:51:53.840Z,12.07
2019-04-05T10:54:23.370Z,12.40
2019-04-05T10:56:53.260Z,11.77
2019-04-05T10:59:23.280Z,13.00
2019-04-05T11:01:53.360Z,12.00
2019-04-05T11:04:23.203Z,11.80
2019-04-05T11:06:53.100Z,11.40
2019-04-05T11:09:23.262Z,11.40
2019-04-05T11:11:53.713Z,11.57
2019-04-05T11:14:24.488Z,12.13
2019-04-05T11:16:58.592Z,12.77
2019-04-05T11:19:26.230Z,12.17
2019-04-05T11:21:56.249Z,12.27
2019-04-05T11:24:26.570Z,13.37
2019-04-05T11:26:56.149Z,13.27
2019-04-05T11:29:26.154Z,12.27
2019-04-05T11:31:57.258Z,13.47
2019-04-05T11:34:26.683Z,13.43
2019-04-05T11:36:56.555Z,13.50
2019-04-05T11:39:26.744Z,14.20
2019-04-05T11:41:59.376Z,14.10
2019-04-05T11:44:29.770Z,13.70
2019-04-05T11:46:59.536Z,13.70
2019-04-05T11:49:30.460Z,14.17
2019-04-05T11:51:59.872Z,14.40
2019-04-05T11:54:29.315Z,15.53
2019-04-05T11:56:59.052Z,14.23
2019-04-05T11:59:28.531Z,14.27
2019-04-05T12:02:04.125Z,14.90
2019-04-05T12:04:33.903Z,15.23
2019-04-05T12:07:03.310Z,15.07
2019-04-05T12:09:32.854Z,15.63
2019-04-05T12:12:02.268Z,15.03
2019-04-05T12:14:31.864Z,16.03
2019-04-05T12:17:01.236Z,14.83
2019-04-05T12:19:32.878Z,15.63
2019-04-05T12:22:04.517Z,15.47
2019-04-05T12:24:33.908Z,14.53
2019-04-05T12:27:04.830Z,16.27
2019-04-05T12:29:35.149Z,16.17
2019-04-05T12:32:04.772Z,16.87
2019-04-05T12:34:34.878Z,17.10
2019-04-05T12:37:04.360Z,16.43
2019-04-05T12:39:36.419Z,17.07
2019-04-05T12:42:05.632Z,16.40
2019-04-05T12:44:35.487Z,16.57
2019-04-05T12:47:06.414Z,14.87
2019-04-05T12:49:36.009Z,16.87
2019-04-05T12:52:05.836Z,17.27
2019-04-05T12:54:35.264Z,15.43
2019-04-05T12:57:04.958Z,16.53
2019-04-05T12:59:34.827Z,16.27
2019-04-05T13:02:04.614Z,15.07
2019-04-05T13:04:34.037Z,15.20
2019-04-05T13:07:03.438Z,15.70
2019-04-05T13:09:32.844Z,16.83
2019-04-05T13:12:02.490Z,16.17
2019-04-05T13:14:31.927Z,15.70
2019-04-05T13:17:02.684Z,17.53
2019-04-05T13:19:32.212Z,16.83
2019-04-05T13:22:02.771Z,19.03
2019-04-05T13:24:33.168Z,18.20
2019-04-05T13:27:02.602Z,16.83
2019-04-05T13:29:31.994Z,17.20
2019-04-05T13:32:01.778Z,18.57
2019-04-05T13:34:31.223Z,18.60
2019-04-05T13:37:01.487Z,18.07
2019-04-05T13:39:31.356Z,20.10
2019-04-05T13:42:01.797Z,19.20
2019-04-05T13:44:32.458Z,20.03
2019-04-05T13:47:02.229Z,19.67
2019-04-05T13:49:31.759Z,19.80
2019-04-05T13:52:01.328Z,18.20
2019-04-05T13:54:30.747Z,18.67
2019-04-05T13:57:00.290Z,18.47
2019-04-05T13:59:29.846Z,19.47
2019-04-05T14:02:06.060Z,19.67
2019-04-05T14:04:30.426Z,19.40
2019-04-05T14:06:59.918Z,18.77
2019-04-05T14:09:31.574Z,19.03
2019-04-05T14:12:00.858Z,19.33
2019-04-05T14:14:30.358Z,19.87
2019-04-05T14:16:59.752Z,18.77
2019-04-05T14:19:29.180Z,19.40
2019-04-05T14:22:08.464Z,17.77
2019-04-05T14:24:29.790Z,18.80
2019-04-05T14:27:02.962Z,18.63
2019-04-05T14:29:33.206Z,18.20
2019-04-05T14:32:19.412Z,18.13
2019-04-05T14:34:32.921Z,17.80
2019-04-05T14:37:02.523Z,17.47
2019-04-05T14:39:31.995Z,18.67
2019-04-05T14:42:09.549Z,18.47
2019-04-05T14:44:32.572Z,18.37
2019-04-05T14:47:02.092Z,18.80
2019-04-05T14:49:32.904Z,17.83
2019-04-05T14:52:02.714Z,18.87
2019-04-05T14:54:32.460Z,18.90
2019-04-05T14:57:05.456Z,19.97
2019-04-05T14:59:33.034Z,17.90
2019-04-05T15:02:02.447Z,18.17
2019-04-05T15:04:31.960Z,19.03
2019-04-05T15:07:01.672Z,17.53
2019-04-05T15:09:31.232Z,17.43
2019-04-05T15:12:00.952Z,18.50
2019-04-05T15:14:30.548Z,19.27
2019-04-05T15:17:00.178Z,18.73
2019-04-05T15:19:29.818Z,18.73
2019-04-05T15:22:05.552Z,18.20
2019-04-05T15:24:31.151Z,19.90
2019-04-05T15:27:00.800Z,19.23
2019-04-05T15:29:30.286Z,18.87
2019-04-05T15:32:00.367Z,18.73
2019-04-05T15:34:29.931Z,18.60
2019-04-05T15:37:01.400Z,17.60
2019-04-05T15:39:30.876Z,17.47
2019-04-05T15:42:01.347Z,17.70
2019-04-05T15:44:31.704Z,17.07
2019-04-05T15:47:01.298Z,17.40
2019-04-05T15:49:30.966Z,17.67
2019-04-05T15:52:01.073Z,17.47
2019-04-05T15:54:33.181Z,17.83
2019-04-05T15:57:03.777Z,17.03
2019-04-05T15:59:33.908Z,18.07
2019-04-05T16:02:04.296Z,16.90
2019-04-05T16:04:34.871Z,16.33
2019-04-05T16:07:04.397Z,15.20
2019-04-05T16:09:34.412Z,16.07
2019-04-05T16:12:04.030Z,14.77
2019-04-05T16:14:33.358Z,14.00
2019-04-05T16:17:03.135Z,16.40
2019-04-05T16:19:32.445Z,14.70
2019-04-05T16:22:01.935Z,16.33
2019-04-05T16:24:31.340Z,14.53
2019-04-05T16:27:00.791Z,15.63
2019-04-05T16:29:30.406Z,13.60
2019-04-05T16:31:59.857Z,15.63
2019-04-05T16:34:29.583Z,14.50
2019-04-05T16:36:58.978Z,16.13
2019-04-05T16:39:28.644Z,14.03
2019-04-05T16:41:58.138Z,14.10
2019-04-05T16:44:27.959Z,13.83
2019-04-05T16:46:57.359Z,13.83
2019-04-05T16:49:26.792Z,13.07
2019-04-05T16:51:56.585Z,13.33
2019-04-05T16:54:26.045Z,12.73
2019-04-05T16:56:55.480Z,13.77
2019-04-05T16:59:24.917Z,13.57
2019-04-05T17:01:56.708Z,12.80
2019-04-05T17:04:25.385Z,13.97
2019-04-05T17:06:54.795Z,13.90
2019-04-05T17:09:24.189Z,15.40
2019-04-05T17:11:53.625Z,14.27
2019-04-05T17:14:23.284Z,14.57
2019-04-05T17:16:52.883Z,15.77
2019-04-05T17:19:22.351Z,14.97
2019-04-05T17:21:51.817Z,15.50
2019-04-05T17:24:21.443Z,16.23
2019-04-05T17:26:50.836Z,14.53
2019-04-05T17:29:22.055Z,15.00
2019-04-05T17:31:51.443Z,15.57
2019-04-05T17:34:20.840Z,14.93
2019-04-05T17:36:50.252Z,15.43
2019-04-05T17:39:20.609Z,15.57
2019-04-05T17:41:50.079Z,15.50
2019-04-05T17:44:19.494Z,16.20
2019-04-05T17:46:48.851Z,15.07
2019-04-05T17:49:18.237Z,16.10
2019-04-05T17:51:47.685Z,15.90
2019-04-05T17:54:17.196Z,16.17
2019-04-05T17:56:47.117Z,15.93
2019-04-05T17:59:17.613Z,17.60
2019-04-05T18:01:47.586Z,17.43
2019-04-05T18:04:17.532Z,18.50
2019-04-05T18:06:48.002Z,18.80
2019-04-05T18:09:17.959Z,16.77
2019-04-05T18:11:47.609Z,18.87
2019-04-05T18:14:17.032Z,17.87
2019-04-05T18:16:46.691Z,18.07
2019-04-05T18:19:16.179Z,17.80
2019-04-05T18:21:45.933Z,18.47
2019-04-05T18:24:18.672Z,18.37
2019-04-05T18:26:48.193Z,16.97
2019-04-05T18:29:17.626Z,18.20
2019-04-05T18:31:47.065Z,18.27
2019-04-05T18:34:19.961Z,19.67
2019-04-05T18:36:50.618Z,17.97
2019-04-05T18:39:20.024Z,17.00
2019-04-05T18:41:49.453Z,16.80
2019-04-05T18:44:18.891Z,18.93
2019-04-05T18:46:48.323Z,17.03
2019-04-05T18:49:17.806Z,17.30
2019-04-05T18:51:47.355Z,15.83
2019-04-05T18:54:17.078Z,17.23
2019-04-05T18:56:46.895Z,18.17
2019-04-05T18:59:16.315Z,18.40
2019-04-05T19:01:45.623Z,18.40
2019-04-05T19:04:15.091Z,18.57
2019-04-05T19:06:44.520Z,18.33
2019-04-05T19:09:13.961Z,17.40
2019-04-05T19:11:43.358Z,18.13
2019-04-05T19:14:12.821Z,18.67
2019-04-05T19:16:42.651Z,17.67
2019-04-05T19:19:12.150Z,18.27
2019-04-05T19:21:41.766Z,16.57
2019-04-05T19:24:11.094Z,17.50
2019-04-05T19:26:40.576Z,17.10
2019-04-05T19:29:09.991Z,17.47
2019-04-05T19:49:18.614Z,21.50
2019-04-05T19:51:48.021Z,21.13
2019-04-05T19:54:17.525Z,19.70
2019-04-05T19:56:47.147Z,19.67
2019-04-05T19:59:16.645Z,20.43
2019-04-05T20:01:46.041Z,19.47
2019-04-05T20:04:15.464Z,19.20
2019-04-05T20:06:44.879Z,20.03
2019-04-05T20:09:14.324Z,20.63
2019-04-05T20:11:43.716Z,21.13
2019-04-05T20:14:13.160Z,21.37
2019-04-05T20:19:25.468Z,21.13
2019-04-05T20:21:55.150Z,20.50
2019-04-05T20:24:24.983Z,20.77
2019-04-05T20:26:54.450Z,23.03
2019-04-05T20:29:23.887Z,23.80
2019-04-05T20:31:53.853Z,24.03
2019-04-05T20:34:23.520Z,23.80
2019-04-05T20:36:56.032Z,23.03
2019-04-05T20:39:25.440Z,23.73
2019-04-05T20:41:54.881Z,24.73
2019-04-05T20:44:24.330Z,24.90
2019-04-05T20:46:54.133Z,24.57
2019-04-05T20:49:23.937Z,26.00
2019-04-05T20:51:53.367Z,24.20
2019-04-05T20:54:24.778Z,25.97
2019-04-05T20:56:54.000Z,25.80
2019-04-05T20:59:24.299Z,25.17
2019-04-05T21:01:53.681Z,27.80
2019-04-05T21:04:23.139Z,27.87
2019-04-05T21:06:52.496Z,28.80
2019-04-05T21:09:22.052Z,28.33
2019-04-05T21:12:10.643Z,27.53
2019-04-05T21:14:40.193Z,26.97
2019-04-05T21:17:09.579Z,28.43
2019-04-05T21:19:39.041Z,26.20
2019-04-05T21:22:08.483Z,26.50
2019-04-05T21:24:37.935Z,27.07
2019-04-05T21:27:07.429Z,27.33
2019-04-05T21:29:36.979Z,27.17
2019-04-05T21:32:06.481Z,29.73
2019-04-05T21:34:35.966Z,29.00
2019-04-05T21:37:05.772Z,26.10
2019-04-05T21:39:35.443Z,26.33
2019-04-05T21:42:05.222Z,26.07
2019-04-05T21:44:34.674Z,25.90
2019-04-05T21:47:04.144Z,25.83
2019-04-05T21:49:34.155Z,26.57
2019-04-05T21:52:03.635Z,25.60
2019-04-05T21:54:33.434Z,25.30
2019-04-05T21:57:03.387Z,26.93
2019-04-05T21:59:32.977Z,27.00
2019-04-05T22:02:02.724Z,25.77
2019-04-05T22:04:32.184Z,25.57
2019-04-05T22:07:01.616Z,25.50
2019-04-05T22:09:31.448Z,26.77
2019-04-05T22:12:00.803Z,26.50
2019-04-05T22:14:30.264Z,25.27
2019-04-05T22:16:59.726Z,25.90
2019-04-05T22:19:29.275Z,25.93
2019-04-05T22:22:00.108Z,25.60
2019-04-05T22:24:30.300Z,25.27
2019-04-05T22:26:59.692Z,26.40
2019-04-05T22:29:29.184Z,27.77
2019-04-05T22:31:58.719Z,28.43
2019-04-05T22:34:28.186Z,26.03
2019-04-05T22:36:57.639Z,27.73
2019-04-05T22:39:27.120Z,27.70
2019-04-05T22:41:56.553Z,28.13
2019-04-05T22:44:29.266Z,27.70
2019-04-05T22:46:57.112Z,28.47
2019-04-05T22:49:26.681Z,27.77
2019-04-05T22:51:56.126Z,28.30
2019-04-05T22:54:44.638Z,30.00
2019-04-05T22:57:14.125Z,28.50
2019-04-05T22:59:43.585Z,29.20
2019-04-05T23:02:13.040Z,29.20
2019-04-05T23:04:42.517Z,29.87
2019-04-05T23:07:11.952Z,30.67
2019-04-05T23:09:41.419Z,29.87
2019-04-05T23:12:10.863Z,31.77
2019-04-05T23:14:40.359Z,32.93
2019-04-05T23:17:09.913Z,33.27
2019-04-05T23:19:39.396Z,33.33
2019-04-05T23:22:08.869Z,33.97
2019-04-05T23:24:38.359Z,34.23
2019-04-05T23:27:07.838Z,35.77
2019-04-05T23:29:37.266Z,37.33
2019-04-05T23:32:06.913Z,34.47
2019-04-05T23:34:36.399Z,35.03
2019-04-05T23:37:05.836Z,34.07
2019-04-05T23:39:35.334Z,35.90
2019-04-05T23:42:04.739Z,35.07
2019-04-05T23:44:34.343Z,35.17
2019-04-05T23:47:03.825Z,36.10
2019-04-05T23:49:33.385Z,36.90
2019-04-05T23:52:02.863Z,35.87
2019-04-05T23:54:32.266Z,35.03
2019-04-05T23:57:01.874Z,37.00
2019-04-05T23:59:31.315Z,35.87
